Time;durP1;ratioP1;P1;durP2;ratioP2;P2;SDS_P1;SDS_P2;PMS_P1;PMS_P2;Temp;Humidity;BMP_temperature;BMP_pressure;BME280_temperature;BME280_humidity;BME280_pressure;Samples;Min_cycle;Max_cycle;Signal;HPM_P1;HPM_P2
2022/04/22 00:00:00;;;;;;;4.80;4.47;;;9.50;99.90;;;;;;6286983;28;20321;-56
2022/04/22 00:03:05;;;;;;;4.83;4.43;;;9.30;99.90;;;;;;6308430;27;20305;-55
2022/04/22 00:06:08;;;;;;;4.63;4.20;;;9.30;99.90;;;;;;6318598;27;20236;-55
2022/04/22 00:09:11;;;;;;;5.17;4.67;;;9.30;99.90;;;;;;6311364;27;20241;-56
2022/04/22 00:12:13;;;;;;;5.00;4.70;;;9.20;99.90;;;;;;6309312;28;20319;-56
2022/04/22 00:15:16;;;;;;;6.17;4.57;;;9.20;99.90;;;;;;6312601;28;20836;-56
2022/04/22 00:18:21;;;;;;;5.73;5.23;;;9.10;99.90;;;;;;6301165;28;20710;-56
2022/04/22 00:21:24;;;;;;;5.63;5.23;;;9.00;99.90;;;;;;6283793;28;20322;-56
2022/04/22 00:24:27;;;;;;;5.30;4.90;;;9.00;99.90;;;;;;6283003;28;20686;-57
2022/04/22 00:27:29;;;;;;;6.97;5.43;;;9.10;99.90;;;;;;6284080;28;20676;-58
2022/04/22 00:30:32;;;;;;;7.23;6.07;;;8.80;99.90;;;;;;6308014;28;20879;-56
2022/04/22 00:33:36;;;;;;;6.27;5.53;;;8.80;99.90;;;;;;6307122;28;20856;-55
2022/04/22 00:36:39;;;;;;;7.33;5.40;;;8.60;99.90;;;;;;6299419;28;20243;-56
2022/04/22 00:39:42;;;;;;;7.40;6.00;;;8.60;99.90;;;;;;6296369;28;20978;-56
2022/04/22 00:42:44;;;;;;;6.57;6.03;;;8.50;99.90;;;;;;6304752;28;20263;-55
2022/04/22 00:45:48;;;;;;;5.70;5.40;;;8.50;99.90;;;;;;6284572;28;20241;-55
2022/04/22 00:48:52;;;;;;;7.60;6.40;;;8.40;99.90;;;;;;6284280;28;20716;-56
2022/04/22 00:51:55;;;;;;;7.40;6.43;;;8.30;99.90;;;;;;6283007;28;20557;-55
2022/04/22 00:54:58;;;;;;;6.50;6.10;;;8.30;99.90;;;;;;6281179;28;20553;-56
2022/04/22 00:58:02;;;;;;;7.63;6.00;;;8.20;99.90;;;;;;6283566;28;20407;-55
2022/04/22 01:01:05;;;;;;;6.00;5.50;;;8.10;1.00;;;;;;6285488;28;20317;-56
2022/04/22 01:10:51;;;;;;;7.47;6.50;;;8.00;1.00;;;;;;6298902;28;20240;-54
2022/04/22 01:13:54;;;;;;;7.67;6.90;;;8.00;1.00;;;;;;6310669;28;20715;-57
2022/04/22 01:16:57;;;;;;;8.97;7.27;;;7.90;1.00;;;;;;6305488;28;20252;-56
2022/04/22 01:20:01;;;;;;;9.50;7.07;;;7.90;1.00;;;;;;6283796;28;20298;-56
2022/04/22 01:23:05;;;;;;;8.43;7.80;;;7.80;1.00;;;;;;6283577;28;20316;-54
2022/04/22 01:26:08;;;;;;;7.70;7.00;;;7.70;1.00;;;;;;6280789;28;20241;-56
2022/04/22 01:29:12;;;;;;;8.03;7.27;;;7.60;1.00;;;;;;6293833;28;20717;-55
2022/04/22 01:32:15;;;;;;;8.90;7.40;;;7.60;1.00;;;;;;6311294;28;20301;-55
2022/04/22 01:35:17;;;;;;;8.73;6.67;;;7.50;1.00;;;;;;6300156;28;20267;-55
2022/04/22 01:38:21;;;;;;;7.10;6.37;;;7.50;1.00;;;;;;6310624;28;20406;-57
2022/04/22 01:41:24;;;;;;;7.40;6.80;;;7.50;1.00;;;;;;6306970;28;20962;-54
2022/04/22 01:44:28;;;;;;;10.07;7.63;;;7.40;1.00;;;;;;6304517;28;20315;-56
2022/04/22 01:47:31;;;;;;;8.03;7.13;;;7.30;1.00;;;;;;6283372;28;20260;-59
2022/04/22 01:50:33;;;;;;;10.07;7.83;;;7.30;1.00;;;;;;6283080;28;20312;-55
2022/04/22 01:53:37;;;;;;;8.73;7.40;;;7.30;1.00;;;;;;6282534;28;20781;-55
2022/04/22 01:56:40;;;;;;;11.07;7.87;;;7.30;1.00;;;;;;6281976;28;20600;-56
2022/04/22 01:59:44;;;;;;;12.67;7.57;;;7.10;1.00;;;;;;6283732;28;20240;-56
2022/04/22 02:02:47;;;;;;;7.27;6.63;;;7.30;1.00;;;;;;6300452;28;20705;-57
2022/04/22 02:05:50;;;;;;;9.87;7.20;;;7.20;1.00;;;;;;6313474;27;20239;-56
2022/04/22 02:08:54;;;;;;;10.70;8.20;;;7.20;1.00;;;;;;6308644;28;20338;-55
2022/04/22 02:11:57;;;;;;;9.47;7.53;;;7.10;1.00;;;;;;6302952;28;20371;-56
2022/04/22 02:14:59;;;;;;;12.83;7.83;;;7.10;1.00;;;;;;6309722;28;20324;-56
2022/04/22 02:18:03;;;;;;;10.00;7.63;;;7.00;1.00;;;;;;6308806;28;20312;-55
2022/04/22 02:21:06;;;;;;;7.97;7.33;;;7.00;1.00;;;;;;6296795;28;20246;-55
2022/04/22 02:24:11;;;;;;;9.60;8.07;;;7.00;1.00;;;;;;6298418;28;20324;-56
2022/04/22 02:30:34;;;;;;;9.23;8.00;;;7.00;1.00;;;;;;6304257;28;20258;-56
2022/04/22 02:33:38;;;;;;;12.80;8.13;;;7.00;1.00;;;;;;6302387;28;20228;-57
2022/04/22 02:36:41;;;;;;;12.27;8.47;;;7.20;1.00;;;;;;6301336;28;20328;-60
2022/04/22 02:39:45;;;;;;;8.80;7.93;;;7.00;1.00;;;;;;6304560;28;20240;-59
2022/04/22 02:46:08;;;;;;;12.27;8.33;;;7.20;1.00;;;;;;6286887;28;20238;-54
2022/04/22 02:49:11;;;;;;;9.60;8.40;;;7.10;1.00;;;;;;6307200;28;20366;-56
2022/04/22 02:52:14;;;;;;;9.10;8.20;;;7.10;1.00;;;;;;6306956;28;20385;-55
2022/04/22 02:55:18;;;;;;;13.30;8.33;;;7.20;1.00;;;;;;6304937;28;20237;-56
2022/04/22 02:58:21;;;;;;;10.67;8.17;;;7.00;1.00;;;;;;6306626;28;20750;-56
2022/04/22 03:01:24;;;;;;;9.87;8.27;;;7.10;1.00;;;;;;6318592;28;20228;-56
2022/04/22 03:04:27;;;;;;;11.07;9.50;;;7.10;1.00;;;;;;6333240;28;20720;-57
2022/04/22 03:07:30;;;;;;;10.37;8.67;;;7.10;1.00;;;;;;6311533;28;20259;-55
2022/04/22 03:10:34;;;;;;;13.00;9.10;;;7.20;1.00;;;;;;6328219;28;20238;-56
2022/04/22 03:13:39;;;;;;;9.87;8.73;;;7.20;1.00;;;;;;6333764;28;20291;-55
2022/04/22 03:16:42;;;;;;;9.90;7.60;;;7.10;1.00;;;;;;6333569;28;20256;-55
2022/04/22 03:19:45;;;;;;;10.20;8.57;;;7.10;1.00;;;;;;6320983;28;20709;-55
2022/04/22 03:22:48;;;;;;;10.00;8.03;;;7.10;1.00;;;;;;6307964;28;20241;-56
2022/04/22 03:25:54;;;;;;;9.97;8.93;;;7.30;1.00;;;;;;6305946;28;20381;-57
2022/04/22 03:28:57;;;;;;;10.27;8.23;;;7.10;1.00;;;;;;6317740;28;20259;-56
2022/04/22 03:32:00;;;;;;;13.80;8.50;;;7.00;1.00;;;;;;6323301;27;20502;-56
2022/04/22 03:35:03;;;;;;;10.93;8.90;;;7.00;1.00;;;;;;6338109;27;20266;-56
2022/04/22 03:38:06;;;;;;;10.30;9.17;;;6.90;1.00;;;;;;6328660;28;20602;-57
2022/04/22 03:41:11;;;;;;;11.07;8.70;;;6.90;1.00;;;;;;6333108;27;20239;-56
2022/04/22 03:44:13;;;;;;;8.93;8.10;;;6.90;1.00;;;;;;6332288;27;20336;-56
2022/04/22 03:47:16;;;;;;;9.17;8.13;;;6.90;1.00;;;;;;6337861;27;20308;-57
2022/04/22 03:50:19;;;;;;;11.07;8.27;;;6.90;1.00;;;;;;6333576;27;20315;-55
2022/04/22 03:53:21;;;;;;;10.13;8.47;;;6.90;1.00;;;;;;6336759;28;20315;-57
2022/04/22 03:59:47;;;;;;;10.63;8.40;;;6.80;1.00;;;;;;6309863;28;20398;-55
2022/04/22 04:02:50;;;;;;;10.53;8.27;;;6.90;1.00;;;;;;6305304;28;20257;-55
2022/04/22 04:05:52;;;;;;;13.00;8.37;;;6.80;1.00;;;;;;6310865;28;20311;-56
2022/04/22 04:25:35;;;;;;;14.03;9.83;;;6.80;1.00;;;;;;6308742;28;20386;-56
2022/04/22 04:28:39;;;;;;;13.43;8.97;;;6.80;1.00;;;;;;6338973;27;20219;-56
2022/04/22 04:31:42;;;;;;;14.20;9.33;;;6.90;1.00;;;;;;6339132;27;20644;-57
2022/04/22 04:34:45;;;;;;;12.93;9.30;;;6.90;1.00;;;;;;6326542;27;20882;-54
2022/04/22 04:37:48;;;;;;;15.63;9.67;;;6.90;1.00;;;;;;6334085;27;20653;-56
2022/04/22 04:40:51;;;;;;;10.10;8.93;;;6.90;1.00;;;;;;6331859;27;20768;-57
2022/04/22 04:43:55;;;;;;;12.40;8.97;;;6.90;1.00;;;;;;6335316;27;20307;-56
2022/04/22 04:46:58;;;;;;;12.63;9.17;;;6.90;1.00;;;;;;6335833;28;20235;-54
2022/04/22 04:50:01;;;;;;;11.30;9.90;;;7.00;1.00;;;;;;6331878;28;20688;-56
2022/04/22 04:53:05;;;;;;;12.40;9.33;;;7.00;1.00;;;;;;6335644;27;20324;-56
2022/04/22 04:56:08;;;;;;;15.33;9.70;;;7.00;1.00;;;;;;6305876;28;20325;-56
2022/04/22 04:59:12;;;;;;;9.87;8.97;;;7.00;1.00;;;;;;6301961;27;20398;-55
2022/04/22 05:02:14;;;;;;;12.10;8.60;;;7.00;1.00;;;;;;6318881;27;20324;-56
2022/04/22 05:05:17;;;;;;;11.53;9.17;;;7.00;1.00;;;;;;6304506;28;20512;-55
2022/04/22 05:08:20;;;;;;;12.43;10.00;;;7.10;1.00;;;;;;6323125;28;20236;-57
2022/04/22 05:11:23;;;;;;;12.53;9.50;;;7.20;1.00;;;;;;6332327;28;20319;-56
2022/04/22 05:14:27;;;;;;;11.77;8.90;;;7.60;1.00;;;;;;6336771;27;20319;-55
2022/04/22 05:17:29;;;;;;;12.00;9.73;;;7.40;1.00;;;;;;6333589;28;20824;-57
2022/04/22 05:20:33;;;;;;;13.00;9.73;;;7.50;1.00;;;;;;6330597;28;20224;-55
2022/04/22 05:23:35;;;;;;;14.80;9.10;;;7.60;1.00;;;;;;6331492;28;20295;-56
2022/04/22 05:26:38;;;;;;;14.67;9.50;;;7.70;1.00;;;;;;6331180;28;20235;-56
2022/04/22 05:33:03;;;;;;;14.73;9.90;;;8.10;1.00;;;;;;6323429;27;20240;-56
2022/04/22 05:36:06;;;;;;;10.90;8.90;;;8.30;1.00;;;;;;6313045;27;20604;-54
2022/04/22 05:39:10;;;;;;;9.20;8.40;;;8.40;1.00;;;;;;6313607;27;20319;-55
2022/04/22 05:42:13;;;;;;;9.30;8.50;;;8.50;1.00;;;;;;6301423;28;20347;-56
2022/04/22 05:45:18;;;;;;;10.17;9.20;;;8.50;1.00;;;;;;6309845;28;20323;-55
2022/04/22 05:48:20;;;;;;;9.63;8.70;;;8.60;1.00;;;;;;6306916;28;20350;-56
2022/04/22 05:51:23;;;;;;;10.53;9.30;;;8.50;1.00;;;;;;6302385;28;20228;-56
2022/04/22 05:54:26;;;;;;;11.23;8.90;;;8.50;1.00;;;;;;6306147;28;20580;-55
2022/04/22 05:57:30;;;;;;;12.67;8.63;;;8.50;1.00;;;;;;6306052;28;20256;-55
2022/04/22 06:00:35;;;;;;;11.93;9.27;;;8.60;1.00;;;;;;6298515;28;20233;-55
2022/04/22 06:03:38;;;;;;;10.10;9.13;;;8.80;1.00;;;;;;6301936;28;20243;-55
2022/04/22 06:06:41;;;;;;;12.50;9.07;;;9.20;1.00;;;;;;6309211;28;20248;-55
2022/04/22 06:13:09;;;;;;;10.97;9.50;;;9.50;1.00;;;;;;6303690;28;20274;-55
2022/04/22 06:16:14;;;;;;;13.37;9.00;;;9.60;1.00;;;;;;6316103;27;20316;-56
2022/04/22 06:19:18;;;;;;;11.70;9.67;;;9.70;1.00;;;;;;6305758;28;20312;-55
2022/04/22 06:22:21;;;;;;;13.10;9.17;;;9.70;1.00;;;;;;6303704;28;20366;-56
2022/04/22 06:25:24;;;;;;;13.83;9.43;;;9.70;1.00;;;;;;6301902;28;20308;-56
2022/04/22 06:28:27;;;;;;;11.13;8.80;;;9.60;1.00;;;;;;6301739;28;20369;-54
2022/04/22 06:31:32;;;;;;;10.73;9.23;;;9.80;1.00;;;;;;6320753;27;20232;-57
2022/04/22 06:34:35;;;;;;;10.77;9.30;;;9.90;1.00;;;;;;6315672;27;20308;-55
2022/04/22 06:37:41;;;;;;;10.43;9.53;;;10.10;1.00;;;;;;6305682;28;20405;-57
2022/04/22 06:47:28;;;;;;;9.93;8.97;;;10.30;1.00;;;;;;6309549;28;20714;-53
2022/04/22 06:50:31;;;;;;;8.67;7.97;;;10.40;1.00;;;;;;6305964;28;20693;-56
2022/04/22 06:53:35;;;;;;;10.23;9.10;;;10.50;1.00;;;;;;6305797;28;20319;-55
2022/04/22 06:56:40;;;;;;;10.10;8.80;;;10.50;1.00;;;;;;6294637;28;20393;-56
2022/04/22 06:59:43;;;;;;;9.27;8.47;;;10.70;1.00;;;;;;6306383;28;20233;-55
2022/04/22 07:02:48;;;;;;;9.97;8.23;;;10.70;1.00;;;;;;6306678;28;20706;-56
2022/04/22 07:05:51;;;;;;;10.70;8.73;;;10.80;1.00;;;;;;6303094;28;20241;-56
2022/04/22 07:08:55;;;;;;;9.03;8.07;;;10.80;1.00;;;;;;6302134;28;20361;-55
2022/04/22 07:11:59;;;;;;;10.07;8.07;;;10.90;1.00;;;;;;6318395;27;20673;-56
2022/04/22 07:15:04;;;;;;;8.60;7.90;;;10.90;1.00;;;;;;6336691;27;20362;-58
2022/04/22 07:18:09;;;;;;;9.40;8.40;;;11.00;1.00;;;;;;6336114;27;20264;-56
2022/04/22 07:21:13;;;;;;;9.17;8.33;;;11.10;1.00;;;;;;6329809;27;20240;-55
2022/04/22 07:24:17;;;;;;;10.67;8.83;;;11.10;1.00;;;;;;6336020;27;20243;-56
2022/04/22 07:27:23;;;;;;;9.83;8.23;;;11.20;1.00;;;;;;6332282;27;20803;-54
2022/04/22 07:30:26;;;;;;;10.87;8.07;;;11.30;1.00;;;;;;6328641;27;20319;-55
2022/04/22 07:33:31;;;;;;;9.37;8.47;;;11.40;1.00;;;;;;6335987;27;20228;-56
2022/04/22 07:36:34;;;;;;;11.03;8.60;;;11.50;1.00;;;;;;6311241;28;20731;-55
2022/04/22 07:39:38;;;;;;;9.33;8.43;;;11.60;1.00;;;;;;6307052;28;20247;-55
2022/04/22 07:46:46;;;;;;;8.67;7.83;;;11.70;1.00;;;;;;6311755;28;20237;-54
2022/04/22 07:49:31;;;;;;;9.60;8.70;;;11.70;1.00;;;;;;6309498;28;20237;-55
2022/04/22 07:52:34;;;;;;;9.73;8.90;;;11.60;1.00;;;;;;6309819;28;20233;-55
2022/04/22 07:55:37;;;;;;;10.93;8.83;;;11.60;1.00;;;;;;6299550;28;20237;-54
2022/04/22 07:58:40;;;;;;;9.77;8.77;;;11.60;1.00;;;;;;6310422;28;20639;-55
2022/04/22 08:01:42;;;;;;;11.70;10.17;;;11.60;1.00;;;;;;6303280;28;20324;-56
2022/04/22 08:04:47;;;;;;;14.40;10.83;;;11.50;1.00;;;;;;6307231;28;20232;-56
2022/04/22 08:07:50;;;;;;;12.63;11.10;;;11.50;1.00;;;;;;6322456;28;20238;-55
2022/04/22 08:10:52;;;;;;;19.43;11.87;;;11.50;1.00;;;;;;6303896;28;20444;-49
2022/04/22 08:13:55;;;;;;;13.07;11.20;;;11.60;1.00;;;;;;6308673;28;20312;-54
2022/04/22 08:16:59;;;;;;;19.10;12.17;;;11.50;1.00;;;;;;6309775;28;20236;-55
2022/04/22 08:20:03;;;;;;;15.67;12.03;;;11.70;1.00;;;;;;6307715;28;20232;-55
2022/04/22 08:23:06;;;;;;;11.80;10.90;;;11.70;1.00;;;;;;6310043;28;20312;-55
2022/04/22 08:26:09;;;;;;;12.43;11.17;;;11.80;1.00;;;;;;6307291;28;20443;-54
2022/04/22 08:29:12;;;;;;;16.10;11.43;;;11.90;1.00;;;;;;6303367;28;20328;-57
2022/04/22 08:32:15;;;;;;;13.13;11.20;;;12.00;1.00;;;;;;6309256;28;20256;-55
2022/04/22 08:35:19;;;;;;;12.43;11.23;;;12.10;1.00;;;;;;6305443;28;20239;-55
2022/04/22 08:38:22;;;;;;;13.70;11.73;;;12.10;1.00;;;;;;6312447;28;20249;-56
2022/04/22 08:41:25;;;;;;;13.07;11.87;;;12.10;1.00;;;;;;6330780;28;20634;-55
2022/04/22 08:44:30;;;;;;;13.17;11.97;;;12.20;1.00;;;;;;6333925;27;20301;-57
2022/04/22 08:50:56;;;;;;;13.50;12.17;;;12.30;1.00;;;;;;6333466;28;20238;-56
2022/04/22 08:53:58;;;;;;;15.17;12.83;;;12.40;1.00;;;;;;6325014;28;20319;-56
2022/04/22 08:57:02;;;;;;;13.93;11.93;;;12.30;1.00;;;;;;6330901;28;20794;-55
2022/04/22 09:00:08;;;;;;;13.80;12.27;;;12.40;1.00;;;;;;6335287;27;20263;-56
2022/04/22 09:03:10;;;;;;;12.80;11.10;;;12.60;1.00;;;;;;6332589;27;20735;-55
2022/04/22 09:06:15;;;;;;;12.23;11.13;;;12.70;99.90;;;;;;6334661;27;20489;-55
2022/04/22 09:09:19;;;;;;;12.23;11.23;;;12.90;99.90;;;;;;6332281;27;20263;-54
2022/04/22 09:12:23;;;;;;;12.90;11.60;;;13.10;99.90;;;;;;6322478;28;20263;-55
2022/04/22 09:15:33;;;;;;;13.83;12.30;;;13.30;99.90;;;;;;6331197;27;20369;-56
2022/04/22 09:18:59;;;;;;;12.43;11.33;;;13.30;99.90;;;;;;6301698;28;20720;-56
2022/04/22 09:22:04;;;;;;;12.83;11.50;;;13.30;99.90;;;;;;6306661;28;20840;-55
2022/04/22 09:25:06;;;;;;;11.10;10.17;;;13.40;99.90;;;;;;6309685;27;20245;-55
2022/04/22 09:28:10;;;;;;;13.27;12.07;;;13.50;99.90;;;;;;6302803;28;20233;-56
2022/04/22 09:31:13;;;;;;;12.97;11.87;;;13.50;99.90;;;;;;6307552;28;20232;-56
2022/04/22 09:34:16;;;;;;;12.23;11.17;;;13.60;99.90;;;;;;6307764;28;20734;-55
2022/04/22 09:44:13;;;;;;;14.83;12.27;;;13.80;99.90;;;;;;6321572;27;20834;-56
2022/04/22 09:47:16;;;;;;;16.27;12.70;;;13.90;99.90;;;;;;6314740;28;20442;-55
2022/04/22 09:50:39;;;;;;;15.57;14.07;;;14.00;99.90;;;;;;6319354;28;20224;-55
2022/04/22 09:53:44;;;;;;;15.37;13.77;;;14.10;99.90;;;;;;6304653;28;20315;-55
2022/04/22 09:56:56;;;;;;;19.70;14.13;;;14.10;99.90;;;;;;6299651;28;20233;-55
2022/04/22 09:59:58;;;;;;;16.30;14.70;;;14.10;99.90;;;;;;6301311;28;20794;-56
2022/04/22 10:03:01;;;;;;;18.83;16.93;;;14.20;99.90;;;;;;6300073;28;20943;-56
2022/04/22 10:06:05;;;;;;;19.70;17.63;;;14.30;99.90;;;;;;6304704;28;20232;-56
2022/04/22 10:09:11;;;;;;;20.03;18.00;;;14.20;99.90;;;;;;6318544;27;20797;-57
2022/04/22 10:12:18;;;;;;;22.37;18.50;;;14.10;99.90;;;;;;6306277;28;20233;-57
2022/04/22 10:15:24;;;;;;;20.47;17.80;;;13.90;99.90;;;;;;6296659;28;20642;-56
2022/04/22 10:18:27;;;;;;;21.27;19.10;;;13.80;99.90;;;;;;6307993;28;20233;-55
2022/04/22 10:21:31;;;;;;;19.87;18.07;;;13.70;1.00;;;;;;6321340;28;20228;-56
2022/04/22 10:24:36;;;;;;;19.90;17.77;;;13.60;99.90;;;;;;6328603;28;20781;-55
2022/04/22 10:27:39;;;;;;;20.40;18.30;;;13.40;1.00;;;;;;6337492;27;20235;-57
2022/04/22 10:30:44;;;;;;;19.87;17.97;;;13.50;1.00;;;;;;6332179;28;20976;-55
2022/04/22 10:33:47;;;;;;;20.80;18.70;;;13.50;1.00;;;;;;6322005;28;20232;-57
2022/04/22 10:36:55;;;;;;;21.57;19.03;;;13.40;1.00;;;;;;6338508;27;20378;-56
2022/04/22 10:40:00;;;;;;;20.53;18.50;;;13.50;1.00;;;;;;6333580;28;20546;-57
2022/04/22 10:43:04;;;;;;;20.30;18.50;;;13.50;1.00;;;;;;6331136;27;20263;-54
2022/04/22 10:49:38;;;;;;;20.53;18.73;;;13.40;1.00;;;;;;6332939;28;20617;-58
2022/04/22 10:52:56;;;;;;;21.10;19.13;;;13.30;1.00;;;;;;6332897;27;20246;-56
2022/04/22 10:56:33;;;;;;;20.23;18.30;;;13.30;1.00;;;;;;6316623;28;20301;-55
2022/04/22 10:59:35;;;;;;;21.57;19.37;;;13.30;1.00;;;;;;6311400;28;20258;-56
2022/04/22 11:02:40;;;;;;;22.53;19.60;;;13.30;1.00;;;;;;6304588;28;20228;-55
2022/04/22 11:05:46;;;;;;;20.20;18.20;;;13.40;1.00;;;;;;6336110;28;20248;-55
2022/04/22 11:09:00;;;;;;;23.00;20.60;;;13.40;1.00;;;;;;6335144;28;20697;-55
2022/04/22 11:12:04;;;;;;;22.03;19.80;;;13.50;1.00;;;;;;6326453;27;20516;-56
2022/04/22 11:15:11;;;;;;;22.83;20.53;;;13.50;99.90;;;;;;6335894;28;20354;-56
2022/04/22 11:18:15;;;;;;;22.10;20.10;;;13.40;99.90;;;;;;6334026;27;20413;-56
2022/04/22 11:21:42;;;;;;;25.50;20.90;;;13.40;99.90;;;;;;6332100;27;20315;-56
2022/04/22 11:24:51;;;;;;;26.93;23.10;;;13.50;99.90;;;;;;6330898;28;20236;-56
2022/04/22 11:27:56;;;;;;;25.77;22.87;;;13.50;99.90;;;;;;6322107;27;20460;-56
2022/04/22 11:31:02;;;;;;;25.50;22.83;;;13.50;99.90;;;;;;6335772;28;20304;-55
2022/04/22 11:34:09;;;;;;;27.10;24.37;;;13.40;99.90;;;;;;6338288;27;20228;-55
2022/04/22 11:37:17;;;;;;;30.50;26.73;;;13.40;99.90;;;;;;6321595;28;20751;-56
2022/04/22 11:40:20;;;;;;;27.67;24.83;;;13.30;99.90;;;;;;6332690;27;20231;-56
2022/04/22 11:43:28;;;;;;;28.33;25.43;;;13.20;99.90;;;;;;6335545;27;20275;-56
2022/04/22 11:46:30;;;;;;;29.43;26.33;;;13.10;99.90;;;;;;6335252;27;20228;-55
2022/04/22 11:49:40;;;;;;;30.87;26.10;;;13.10;1.00;;;;;;6333841;28;20232;-55
2022/04/22 11:52:42;;;;;;;33.90;27.77;;;13.10;1.00;;;;;;6334895;27;20260;-55
2022/04/22 11:55:47;;;;;;;29.03;26.10;;;13.10;99.90;;;;;;6331899;28;20232;-55
2022/04/22 11:58:55;;;;;;;35.37;28.73;;;13.10;1.00;;;;;;6335248;28;20596;-55
2022/04/22 12:05:34;;;;;;;31.30;28.00;;;12.90;1.00;;;;;;6327713;27;20242;-54
2022/04/22 12:08:37;;;;;;;30.53;27.43;;;12.90;1.00;;;;;;6315819;27;20358;-55
2022/04/22 12:11:42;;;;;;;29.73;26.60;;;12.90;1.00;;;;;;6305907;28;20249;-55
2022/04/22 12:14:46;;;;;;;33.80;30.33;;;12.90;1.00;;;;;;6307569;28;20777;-55
2022/04/22 12:17:49;;;;;;;32.47;28.63;;;12.90;1.00;;;;;;6299807;27;20236;-56
2022/04/22 12:20:52;;;;;;;31.00;27.90;;;12.80;1.00;;;;;;6302111;28;20735;-56
2022/04/22 12:24:00;;;;;;;31.13;27.93;;;12.90;1.00;;;;;;6299007;28;20325;-56
2022/04/22 12:27:21;;;;;;;34.73;28.07;;;12.80;1.00;;;;;;6292887;28;20547;-55
2022/04/22 12:30:35;;;;;;;32.03;28.53;;;12.90;1.00;;;;;;6310900;27;20338;-56
2022/04/22 12:33:37;;;;;;;31.57;28.07;;;13.00;1.00;;;;;;6325008;27;20522;-54
2022/04/22 12:36:55;;;;;;;31.73;28.50;;;13.10;1.00;;;;;;6311966;27;20244;-55
2022/04/22 12:40:08;;;;;;;31.33;28.03;;;13.10;1.00;;;;;;6303528;28;20332;-49
2022/04/22 12:43:28;;;;;;;30.03;26.80;;;13.20;1.00;;;;;;6308568;28;20883;-55
2022/04/22 12:53:33;;;;;;;26.87;24.30;;;13.50;99.90;;;;;;6307070;28;20525;-55
2022/04/22 12:56:39;;;;;;;26.27;23.50;;;13.60;99.90;;;;;;6305518;28;20235;-53
2022/04/22 12:59:44;;;;;;;27.47;24.53;;;13.80;99.90;;;;;;6307086;28;20683;-54
2022/04/22 13:02:48;;;;;;;24.57;22.27;;;13.90;99.90;;;;;;6298379;28;20331;-55
2022/04/22 13:05:51;;;;;;;24.47;22.07;;;14.10;99.90;;;;;;6329180;27;20696;-55
2022/04/22 13:08:54;;;;;;;25.93;22.90;;;14.30;99.90;;;;;;6323988;27;20247;-56
2022/04/22 13:11:57;;;;;;;23.27;20.77;;;14.50;99.90;;;;;;6329478;28;20240;-54
2022/04/22 13:15:00;;;;;;;21.83;19.50;;;14.70;99.90;;;;;;6334027;27;20236;-54
2022/04/22 13:18:04;;;;;;;23.43;18.77;;;14.70;99.90;;;;;;6337172;27;20236;-55
2022/04/22 13:21:07;;;;;;;21.27;18.97;;;14.80;99.90;;;;;;6325356;28;20421;-54
2022/04/22 13:24:10;;;;;;;21.87;19.50;;;14.80;99.90;;;;;;6332673;28;20323;-56
2022/04/22 13:27:14;;;;;;;20.37;18.57;;;14.90;99.90;;;;;;6324263;27;20732;-55
2022/04/22 13:30:17;;;;;;;22.50;20.27;;;15.00;99.90;;;;;;6332762;28;20280;-60
2022/04/22 13:33:21;;;;;;;22.20;20.00;;;14.90;99.90;;;;;;6341391;27;20228;-56
2022/04/22 13:36:31;;;;;;;23.47;21.00;;;14.80;99.90;;;;;;6328402;28;20237;-56
2022/04/22 13:39:35;;;;;;;21.03;19.13;;;14.60;99.90;;;;;;6322490;28;20255;-56
2022/04/22 13:42:38;;;;;;;19.80;17.83;;;14.50;99.90;;;;;;6332449;28;20606;-56
2022/04/22 13:52:31;;;;;;;18.07;16.47;;;14.10;99.90;;;;;;6303521;28;20217;-56
2022/04/22 13:55:38;;;;;;;19.10;17.20;;;13.90;99.90;;;;;;6303025;28;20832;-54
2022/04/22 13:58:41;;;;;;;19.30;17.10;;;13.90;99.90;;;;;;6304679;28;20311;-55
2022/04/22 14:01:44;;;;;;;17.40;15.80;;;13.90;99.90;;;;;;6306312;28;20252;-54
2022/04/22 14:04:49;;;;;;;17.17;15.57;;;14.00;99.90;;;;;;6303099;28;20252;-56
2022/04/22 14:07:52;;;;;;;16.57;14.73;;;14.10;99.90;;;;;;6301664;28;20391;-55
2022/04/22 14:10:55;;;;;;;16.10;14.60;;;14.20;99.90;;;;;;6295242;28;20636;-56
2022/04/22 14:13:58;;;;;;;17.80;13.63;;;14.20;99.90;;;;;;6304756;28;20307;-56
2022/04/22 14:17:00;;;;;;;14.43;13.27;;;14.30;99.90;;;;;;6300613;28;20236;-55
2022/04/22 14:20:05;;;;;;;14.40;13.00;;;14.50;99.90;;;;;;6307675;28;20232;-55
2022/04/22 14:23:09;;;;;;;14.20;12.90;;;14.60;99.90;;;;;;6304433;28;20433;-56
2022/04/22 14:26:13;;;;;;;14.10;12.83;;;14.80;99.90;;;;;;6297971;28;20232;-54
2022/04/22 14:29:16;;;;;;;13.47;12.27;;;15.00;99.90;;;;;;6317949;27;20223;-56
2022/04/22 14:32:19;;;;;;;14.13;12.97;;;15.00;99.90;;;;;;6297634;28;20785;-55
2022/04/22 14:35:23;;;;;;;13.37;12.17;;;15.10;99.90;;;;;;6302553;28;20686;-56
2022/04/22 14:38:26;;;;;;;13.97;12.77;;;15.20;99.90;;;;;;6302691;28;20785;-56
2022/04/22 14:41:29;;;;;;;12.43;11.53;;;15.20;99.90;;;;;;6303091;28;20315;-56
2022/04/22 14:44:31;;;;;;;13.60;11.90;;;15.20;99.90;;;;;;6306738;28;20232;-57
2022/04/22 14:47:34;;;;;;;14.17;12.90;;;15.20;99.90;;;;;;6298773;28;20321;-56
2022/04/22 14:50:40;;;;;;;13.47;12.27;;;15.30;99.90;;;;;;6304115;28;20235;-56
2022/04/22 14:53:43;;;;;;;12.53;11.33;;;15.10;99.90;;;;;;6326340;27;20815;-55
2022/04/22 14:56:46;;;;;;;13.30;12.03;;;15.00;99.90;;;;;;6326532;27;20259;-55
2022/04/22 14:59:49;;;;;;;13.07;11.93;;;14.80;99.90;;;;;;6331333;27;20585;-54
2022/04/22 15:02:52;;;;;;;12.60;11.70;;;14.70;99.90;;;;;;6308914;27;20278;-56
2022/04/22 15:05:56;;;;;;;12.73;11.73;;;14.60;99.90;;;;;;6319662;27;20752;-57
2022/04/22 15:09:00;;;;;;;12.70;11.80;;;14.50;99.90;;;;;;6324790;27;20239;-55
2022/04/22 15:12:03;;;;;;;11.63;10.83;;;14.30;99.90;;;;;;6333184;27;20240;-56
2022/04/22 15:15:08;;;;;;;12.13;11.27;;;14.30;99.90;;;;;;6331213;27;20392;-56
2022/04/22 15:24:53;;;;;;;12.47;11.27;;;14.10;99.90;;;;;;6326305;27;20723;-54
2022/04/22 15:27:56;;;;;;;11.60;10.37;;;14.00;99.90;;;;;;6334993;27;20251;-56
2022/04/22 15:31:12;;;;;;;12.00;10.83;;;14.10;99.90;;;;;;6337103;27;20362;-54
2022/04/22 15:34:15;;;;;;;11.57;10.77;;;14.10;99.90;;;;;;6330277;27;20621;-56
2022/04/22 15:37:19;;;;;;;10.70;9.90;;;14.10;99.90;;;;;;6335745;27;20739;-56
2022/04/22 15:40:21;;;;;;;11.57;10.63;;;14.10;99.90;;;;;;6329633;27;20311;-55
2022/04/22 15:43:24;;;;;;;12.33;11.17;;;14.20;99.90;;;;;;6335885;27;20326;-56
2022/04/22 15:46:28;;;;;;;12.50;11.43;;;14.20;99.90;;;;;;6333647;27;20463;-56
2022/04/22 15:49:31;;;;;;;12.40;11.50;;;14.20;99.90;;;;;;6331212;28;20232;-54
2022/04/22 15:52:36;;;;;;;12.33;11.43;;;14.20;99.90;;;;;;6332207;27;20231;-55
2022/04/22 15:55:40;;;;;;;12.57;11.57;;;14.20;99.90;;;;;;6336941;27;20323;-55
2022/04/22 15:58:45;;;;;;;14.57;13.13;;;14.20;99.90;;;;;;6328224;28;20235;-55
2022/04/22 16:01:47;;;;;;;12.97;11.97;;;14.00;99.90;;;;;;6311487;27;20385;-56
2022/04/22 16:04:50;;;;;;;12.53;11.63;;;14.00;99.90;;;;;;6311746;28;20240;-55
2022/04/22 16:07:58;;;;;;;13.63;12.53;;;13.90;99.90;;;;;;6316906;27;20364;-56
2022/04/22 16:17:38;;;;;;;12.40;11.60;;;13.80;99.90;;;;;;6303089;28;20229;-56
2022/04/22 16:20:41;;;;;;;11.63;10.87;;;13.80;99.90;;;;;;6309044;28;20240;-55
2022/04/22 16:23:45;;;;;;;11.43;10.63;;;13.80;99.90;;;;;;6308872;28;20858;-55
2022/04/22 16:26:48;;;;;;;11.93;11.13;;;13.80;99.90;;;;;;6309266;28;20440;-55
2022/04/22 16:29:50;;;;;;;11.33;10.53;;;13.80;99.90;;;;;;6335670;27;20307;-56
2022/04/22 16:32:53;;;;;;;10.50;9.80;;;13.80;99.90;;;;;;6332763;27;20243;-58
2022/04/22 16:35:57;;;;;;;10.40;9.77;;;13.80;99.90;;;;;;6331567;27;20223;-55
2022/04/22 16:39:01;;;;;;;10.67;10.03;;;13.80;99.90;;;;;;6331940;27;20409;-57
2022/04/22 16:42:06;;;;;;;10.53;9.83;;;13.80;99.90;;;;;;6330377;28;20228;-57
2022/04/22 16:45:12;;;;;;;11.23;10.40;;;13.80;99.90;;;;;;6332887;27;20274;-56
2022/04/22 16:48:15;;;;;;;10.37;9.57;;;13.80;99.90;;;;;;6334239;27;20228;-56
2022/04/22 16:51:18;;;;;;;10.30;9.60;;;13.80;99.90;;;;;;6331497;28;20254;-55
2022/04/22 16:54:22;;;;;;;10.00;9.40;;;13.90;99.90;;;;;;6331384;27;20727;-56
2022/04/22 16:57:25;;;;;;;9.33;8.63;;;14.00;99.90;;;;;;6325954;27;20320;-55
2022/04/22 17:00:31;;;;;;;9.17;8.57;;;14.10;99.90;;;;;;6312888;27;20324;-55
2022/04/22 17:03:34;;;;;;;9.30;8.70;;;14.00;99.90;;;;;;6333782;28;20281;-56
2022/04/22 17:06:37;;;;;;;7.97;7.47;;;14.10;99.90;;;;;;6333692;27;20264;-55
2022/04/22 17:09:41;;;;;;;8.13;7.73;;;14.00;99.90;;;;;;6332260;27;20224;-56
2022/04/22 17:12:44;;;;;;;7.10;6.80;;;14.00;99.90;;;;;;6332764;28;20383;-55
2022/04/22 17:22:40;;;;;;;5.97;5.67;;;13.80;99.90;;;;;;6333430;27;20299;-56
2022/04/22 17:25:45;;;;;;;5.90;5.50;;;13.70;99.90;;;;;;6325311;28;20326;-55
2022/04/22 17:28:48;;;;;;;5.80;5.57;;;13.60;99.90;;;;;;6301884;28;20228;-54
2022/04/22 17:31:51;;;;;;;5.53;5.20;;;13.60;99.90;;;;;;6303192;28;20263;-54
2022/04/22 17:34:54;;;;;;;5.70;5.30;;;13.50;99.90;;;;;;6336931;27;20304;-55